createdAt,value
2023-03-01T00:02:20.548Z,51.40
2023-03-01T00:04:47.849Z,51.20
2023-03-01T00:07:14.859Z,51.30
2023-03-01T00:09:41.706Z,51.30
2023-03-01T00:12:08.544Z,51.30
2023-03-01T00:14:36.476Z,51.20
2023-03-01T00:17:03.469Z,51.10
2023-03-01T00:19:33.150Z,51.20
2023-03-01T00:21:59.871Z,51.20
2023-03-01T00:24:26.680Z,51.20
2023-03-01T00:26:54.751Z,51.10
2023-03-01T00:29:22.392Z,51.10
2023-03-01T00:31:51.828Z,51.10
2023-03-01T00:34:18.708Z,51.10
2023-03-01T00:36:46.862Z,51.20
2023-03-01T00:39:15.973Z,51.20
2023-03-01T00:41:43.444Z,51.10
2023-03-01T00:44:10.892Z,51.00
2023-03-01T00:46:37.939Z,51.10
2023-03-01T00:49:04.848Z,51.00
2023-03-01T00:51:31.949Z,51.10
2023-03-01T00:54:01.793Z,51.10
2023-03-01T00:56:29.544Z,51.00
2023-03-01T00:58:56.744Z,51.60
2023-03-01T01:01:26.126Z,50.90
2023-03-01T01:03:56.812Z,50.90
2023-03-01T01:06:25.436Z,51.00
2023-03-01T01:08:54.538Z,50.90
2023-03-01T01:11:23.943Z,50.90
2023-03-01T01:13:51.398Z,50.90
2023-03-01T01:16:19.575Z,50.80
2023-03-01T01:18:47.367Z,50.80
2023-03-01T01:21:16.225Z,50.80
2023-03-01T01:23:44.342Z,50.80
2023-03-01T01:26:12.734Z,50.80
2023-03-01T01:28:41.529Z,50.80
2023-03-01T01:31:08.732Z,50.70
2023-03-01T01:33:35.807Z,50.80
2023-03-01T01:36:03.483Z,50.80
2023-03-01T01:38:30.419Z,50.80
2023-03-01T01:40:57.635Z,50.70
2023-03-01T01:43:26.614Z,50.80
2023-03-01T01:45:57.875Z,50.70
2023-03-01T01:48:33.689Z,50.70
2023-03-01T01:51:01.962Z,50.70
2023-03-01T01:53:31.488Z,50.60
2023-03-01T01:56:02.115Z,50.80
2023-03-01T01:58:31.343Z,50.60
2023-03-01T02:00:59.804Z,50.70
2023-03-01T02:03:30.137Z,50.60
2023-03-01T02:06:01.994Z,50.70
2023-03-01T02:08:31.557Z,50.60
2023-03-01T02:11:01.031Z,50.60
2023-03-01T02:13:28.681Z,50.70
2023-03-01T02:15:59.448Z,50.60
2023-03-01T02:18:26.713Z,50.60
2023-03-01T02:21:08.402Z,51.10
2023-03-01T02:23:35.344Z,50.40
2023-03-01T02:26:09.073Z,50.50
2023-03-01T02:28:38.401Z,50.50
2023-03-01T02:31:07.792Z,50.60
2023-03-01T02:33:37.192Z,50.50
2023-03-01T02:36:08.418Z,50.50
2023-03-01T02:38:35.196Z,50.50
2023-03-01T02:41:04.519Z,50.50
2023-03-01T02:43:33.986Z,50.50
2023-03-01T02:46:07.751Z,50.50
2023-03-01T02:48:42.835Z,50.40
2023-03-01T02:51:23.668Z,50.40
2023-03-01T02:54:00.370Z,50.50
2023-03-01T02:56:27.275Z,50.50
2023-03-01T02:58:54.152Z,50.60
2023-03-01T03:01:23.284Z,50.50
2023-03-01T03:03:50.406Z,50.50
2023-03-01T03:06:17.133Z,50.40
2023-03-01T03:08:43.842Z,50.50
2023-03-01T03:11:10.904Z,50.40
2023-03-01T03:17:00.774Z,50.30
2023-03-01T03:19:27.754Z,50.30
2023-03-01T03:21:54.609Z,50.40
2023-03-01T03:24:21.502Z,50.50
2023-03-01T03:26:48.444Z,50.40
2023-03-01T03:29:16.531Z,50.30
2023-03-01T03:31:43.502Z,50.40
2023-03-01T03:34:12.156Z,50.30
2023-03-01T03:36:39.606Z,50.30
2023-03-01T03:39:06.699Z,50.20
2023-03-01T03:41:36.491Z,50.20
2023-03-01T03:44:03.675Z,50.20
2023-03-01T03:46:30.571Z,50.20
2023-03-01T03:48:57.286Z,50.20
2023-03-01T03:51:25.771Z,50.10
2023-03-01T03:53:52.686Z,50.10
2023-03-01T03:56:19.702Z,50.10
2023-03-01T03:58:46.919Z,50.10
2023-03-01T04:01:13.719Z,50.10
2023-03-01T04:03:40.651Z,50.10
2023-03-01T04:06:07.751Z,50.00
2023-03-01T04:08:36.130Z,50.00
2023-03-01T04:11:05.010Z,50.00
2023-03-01T04:13:33.790Z,50.00
2023-03-01T04:16:00.497Z,49.90
2023-03-01T04:18:27.406Z,49.90
2023-03-01T04:20:54.690Z,49.90
2023-03-01T04:23:21.933Z,50.10
2023-03-01T04:25:51.454Z,49.90
2023-03-01T04:28:18.319Z,49.90
2023-03-01T04:30:45.424Z,49.90
2023-03-01T04:33:12.338Z,49.80
2023-03-01T04:35:39.614Z,50.00
2023-03-01T04:38:07.346Z,49.80
2023-03-01T04:40:34.557Z,50.00
2023-03-01T04:43:03.661Z,49.80
2023-03-01T04:45:30.804Z,49.80
2023-03-01T04:47:57.750Z,49.70
2023-03-01T04:50:24.653Z,49.70
2023-03-01T04:52:51.529Z,49.90
2023-03-01T04:55:18.807Z,49.70
2023-03-01T04:57:45.881Z,49.70
2023-03-01T05:00:15.129Z,49.70
2023-03-01T05:02:41.896Z,49.70
2023-03-01T05:05:08.863Z,49.70
2023-03-01T05:07:36.143Z,49.70
2023-03-01T05:10:03.014Z,49.70
2023-03-01T05:12:30.084Z,49.60
2023-03-01T05:14:56.902Z,49.70
2023-03-01T05:17:25.227Z,49.70
2023-03-01T05:19:52.255Z,49.60
2023-03-01T05:22:19.154Z,49.80
2023-03-01T05:24:45.974Z,49.70
2023-03-01T05:27:14.978Z,50.30
2023-03-01T05:29:42.422Z,49.60
2023-03-01T05:32:14.109Z,49.60
2023-03-01T05:34:44.232Z,49.60
2023-03-01T05:37:11.037Z,49.60
2023-03-01T05:39:38.674Z,49.50
2023-03-01T05:42:05.591Z,49.60
2023-03-01T05:44:33.037Z,49.50
2023-03-01T05:46:59.872Z,50.20
2023-03-01T05:49:26.676Z,49.50
2023-03-01T05:51:54.851Z,49.50
2023-03-01T05:54:22.889Z,49.40
2023-03-01T05:56:51.702Z,49.50
2023-03-01T05:59:18.514Z,49.40
2023-03-01T06:01:45.509Z,49.50
2023-03-01T06:04:14.250Z,49.50
2023-03-01T06:06:41.087Z,49.50
2023-03-01T06:09:09.312Z,49.40
2023-03-01T06:11:36.975Z,49.40
2023-03-01T06:14:03.846Z,49.30
2023-03-01T06:16:33.568Z,49.30
2023-03-01T06:19:00.512Z,49.30
2023-03-01T06:21:27.314Z,49.30
2023-03-01T06:23:54.088Z,49.30
2023-03-01T06:26:22.455Z,49.30
2023-03-01T06:28:49.373Z,49.40
2023-03-01T06:31:16.631Z,49.30
2023-03-01T06:33:43.678Z,49.40
2023-03-01T06:36:10.758Z,49.50
2023-03-01T06:38:37.620Z,49.30
2023-03-01T06:41:04.626Z,49.30
2023-03-01T06:43:32.706Z,49.30
2023-03-01T06:45:59.420Z,49.30
2023-03-01T06:48:26.328Z,49.30
2023-03-01T06:50:53.249Z,49.40
2023-03-01T06:53:20.178Z,49.40
2023-03-01T06:55:46.924Z,49.60
2023-03-01T06:58:13.850Z,49.50
2023-03-01T07:00:42.097Z,49.50
2023-03-01T07:03:09.918Z,49.70
2023-03-01T07:05:36.765Z,49.90
2023-03-01T07:08:03.965Z,49.80
2023-03-01T07:10:30.930Z,49.90
2023-03-01T07:12:59.381Z,50.10
2023-03-01T07:15:27.695Z,50.10
2023-03-01T07:17:57.318Z,50.30
2023-03-01T07:20:24.144Z,50.30
2023-03-01T07:22:50.938Z,50.50
2023-03-01T07:25:17.798Z,50.60
2023-03-01T07:27:44.600Z,50.80
2023-03-01T07:30:12.093Z,51.00
2023-03-01T07:32:38.932Z,51.10
2023-03-01T07:35:08.108Z,51.30
2023-03-01T07:37:34.810Z,51.50
2023-03-01T07:40:01.649Z,51.70
2023-03-01T07:42:28.338Z,52.00
2023-03-01T07:44:55.084Z,52.10
2023-03-01T07:47:21.803Z,52.50
2023-03-01T07:49:48.515Z,52.80
2023-03-01T07:52:16.560Z,53.00
2023-03-01T07:54:44.226Z,53.30
2023-03-01T07:57:11.605Z,53.50
2023-03-01T07:59:38.290Z,53.30
2023-03-01T08:02:05.033Z,53.30
2023-03-01T08:04:32.284Z,53.60
2023-03-01T08:06:59.468Z,54.20
2023-03-01T08:09:27.979Z,54.20
2023-03-01T08:11:54.673Z,54.30
2023-03-01T08:14:21.409Z,54.30
2023-03-01T08:16:50.378Z,54.50
2023-03-01T08:19:17.549Z,54.80
2023-03-01T08:21:44.354Z,54.80
2023-03-01T08:24:11.112Z,55.00
2023-03-01T08:26:39.364Z,55.30
2023-03-01T08:29:06.458Z,55.40
2023-03-01T08:31:36.013Z,55.30
2023-03-01T08:34:04.525Z,55.40
2023-03-01T08:36:33.389Z,55.40
2023-03-01T08:39:00.547Z,55.40
2023-03-01T08:41:27.742Z,55.90
2023-03-01T08:43:56.373Z,55.20
2023-03-01T08:46:23.139Z,55.40
2023-03-01T08:48:49.871Z,55.20
2023-03-01T08:51:21.401Z,55.20
2023-03-01T08:53:49.175Z,55.00
2023-03-01T08:56:17.073Z,55.00
2023-03-01T08:58:46.217Z,55.00
2023-03-01T09:01:16.590Z,54.90
2023-03-01T09:03:43.531Z,54.90
2023-03-01T09:06:10.951Z,55.00
2023-03-01T09:08:39.191Z,55.00
2023-03-01T09:11:07.403Z,55.00
2023-03-01T09:13:34.184Z,55.10
2023-03-01T09:16:03.777Z,55.20
2023-03-01T09:18:32.597Z,55.20
2023-03-01T09:21:02.582Z,55.30
2023-03-01T09:23:29.282Z,55.40
2023-03-01T09:25:55.970Z,55.60
2023-03-01T09:28:29.727Z,55.60
2023-03-01T09:30:59.174Z,55.70
2023-03-01T09:33:26.006Z,55.50
2023-03-01T09:35:58.567Z,55.80
2023-03-01T09:38:26.033Z,55.80
2023-03-01T09:40:54.523Z,56.00
2023-03-01T09:43:27.242Z,55.90
2023-03-01T09:45:57.390Z,56.20
2023-03-01T09:48:28.654Z,56.40
2023-03-01T09:50:57.032Z,56.40
2023-03-01T09:53:31.741Z,56.60
2023-03-01T09:56:02.859Z,56.90
2023-03-01T09:58:40.094Z,56.90
2023-03-01T10:01:24.714Z,56.80
2023-03-01T10:04:12.248Z,57.00
2023-03-01T10:06:40.509Z,56.90
2023-03-01T10:09:14.730Z,57.20
2023-03-01T10:11:46.529Z,56.00
2023-03-01T10:14:24.794Z,56.20
2023-03-01T10:16:55.292Z,57.20
2023-03-01T10:19:26.508Z,56.70
2023-03-01T10:21:53.966Z,55.60
2023-03-01T10:24:22.021Z,56.00
2023-03-01T10:26:55.930Z,57.30
2023-03-01T10:29:27.157Z,58.00
2023-03-01T10:31:54.974Z,57.70
2023-03-01T10:34:23.348Z,57.30
2023-03-01T10:36:52.211Z,57.30
2023-03-01T10:39:21.456Z,57.60
2023-03-01T10:41:59.665Z,57.90
2023-03-01T10:44:42.104Z,58.20
2023-03-01T10:47:18.781Z,57.80
2023-03-01T10:49:54.457Z,58.10
2023-03-01T10:52:23.715Z,58.30
2023-03-01T10:54:55.730Z,58.00
2023-03-01T10:57:31.164Z,57.80
2023-03-01T11:00:16.617Z,58.50
2023-03-01T11:02:43.296Z,58.10
2023-03-01T11:05:20.654Z,58.10
2023-03-01T11:07:52.968Z,58.30
2023-03-01T11:10:22.181Z,58.00
2023-03-01T11:12:52.135Z,57.70
2023-03-01T11:15:25.469Z,57.70
2023-03-01T11:17:57.092Z,57.80
2023-03-01T11:20:30.317Z,57.90
2023-03-01T11:23:00.767Z,57.90
2023-03-01T11:25:32.892Z,57.90
2023-03-01T11:28:04.190Z,57.40
2023-03-01T11:30:34.988Z,56.40
2023-03-01T11:33:14.503Z,56.90
2023-03-01T11:35:46.150Z,56.90
2023-03-01T11:38:21.965Z,56.00
2023-03-01T11:40:55.100Z,54.40
2023-03-01T11:43:30.343Z,55.50
2023-03-01T11:46:23.586Z,56.90
2023-03-01T11:48:58.987Z,57.10
2023-03-01T11:51:38.222Z,57.10
2023-03-01T11:54:18.335Z,57.60
2023-03-01T11:56:51.369Z,57.50
2023-03-01T11:59:45.915Z,57.00
2023-03-01T12:02:49.264Z,56.80
2023-03-01T12:05:39.005Z,57.10
2023-03-01T12:08:11.973Z,57.20
2023-03-01T12:10:49.836Z,57.80
2023-03-01T12:13:47.403Z,57.50
2023-03-01T12:16:38.494Z,57.10
2023-03-01T12:19:34.643Z,57.40
2023-03-01T12:22:29.707Z,57.00
2023-03-01T12:25:22.396Z,54.80
2023-03-01T12:28:04.633Z,56.50
2023-03-01T12:30:43.291Z,56.40
2023-03-01T12:33:23.511Z,57.40
2023-03-01T12:36:23.249Z,56.00
2023-03-01T12:38:51.473Z,56.20
2023-03-01T12:41:39.447Z,55.80
2023-03-01T12:44:16.394Z,54.70
2023-03-01T12:46:58.080Z,54.10
2023-03-01T12:49:31.012Z,54.60
2023-03-01T12:52:01.256Z,53.00
2023-03-01T12:54:30.554Z,52.70
2023-03-01T12:57:00.889Z,51.40
2023-03-01T12:59:37.296Z,50.70
2023-03-01T13:02:16.617Z,52.10
2023-03-01T13:05:07.427Z,50.50
2023-03-01T13:07:39.838Z,50.30
2023-03-01T13:10:18.007Z,50.50
2023-03-01T13:12:48.088Z,49.00
2023-03-01T13:15:33.206Z,49.40
2023-03-01T13:18:01.480Z,48.60
2023-03-01T13:20:33.707Z,49.40
2023-03-01T13:23:25.468Z,48.20
2023-03-01T13:26:12.823Z,48.20
2023-03-01T13:28:51.943Z,45.40
2023-03-01T13:31:58.305Z,47.60
2023-03-01T13:34:59.040Z,48.20
2023-03-01T13:37:37.944Z,47.70
2023-03-01T13:40:25.350Z,45.60
2023-03-01T13:43:04.848Z,44.30
2023-03-01T13:45:40.347Z,44.90
2023-03-01T13:48:11.819Z,46.50
2023-03-01T13:50:46.098Z,47.40
2023-03-01T13:53:19.161Z,46.90
2023-03-01T13:55:48.540Z,46.20
2023-03-01T14:00:44.715Z,46.50
2023-03-01T14:03:14.356Z,46.50
2023-03-01T14:05:42.795Z,46.60
2023-03-01T14:08:26.546Z,46.50
2023-03-01T14:11:09.718Z,46.10
2023-03-01T14:13:54.625Z,45.10
2023-03-01T14:16:33.349Z,45.20
2023-03-01T14:19:20.231Z,45.10
2023-03-01T14:22:00.983Z,44.70
2023-03-01T14:24:30.095Z,43.10
2023-03-01T14:26:56.813Z,44.60
2023-03-01T14:29:38.456Z,45.10
2023-03-01T14:32:13.919Z,43.70
2023-03-01T14:34:45.144Z,45.10
2023-03-01T14:37:18.461Z,41.50
2023-03-01T14:39:46.458Z,44.70
2023-03-01T14:42:15.905Z,44.40
2023-03-01T14:44:44.108Z,44.50
2023-03-01T14:47:13.301Z,44.70
2023-03-01T14:49:40.158Z,44.00
2023-03-01T14:52:18.327Z,44.60
2023-03-01T14:54:49.259Z,43.80
2023-03-01T14:57:17.491Z,44.10
2023-03-01T14:59:44.616Z,43.10
2023-03-01T15:02:16.588Z,43.80
2023-03-01T15:04:44.631Z,42.70
2023-03-01T15:07:14.089Z,43.10
2023-03-01T15:09:41.440Z,43.40
2023-03-01T15:12:36.675Z,44.00
2023-03-01T15:15:22.370Z,43.30
2023-03-01T15:17:54.236Z,43.10
2023-03-01T15:20:21.143Z,44.00
2023-03-01T15:22:48.430Z,43.50
2023-03-01T15:25:17.298Z,44.00
2023-03-01T15:27:49.532Z,44.00
2023-03-01T15:30:22.195Z,44.20
2023-03-01T15:32:48.917Z,44.20
2023-03-01T15:35:40.847Z,44.20
2023-03-01T15:38:26.615Z,44.00
2023-03-01T15:40:53.903Z,43.90
2023-03-01T15:43:42.231Z,43.80
2023-03-01T15:46:18.372Z,44.40
2023-03-01T15:48:46.722Z,44.10
2023-03-01T15:51:14.813Z,44.20
2023-03-01T15:53:53.849Z,43.60
2023-03-01T15:56:21.370Z,43.80
2023-03-01T15:58:49.460Z,44.40
2023-03-01T16:01:17.766Z,44.10
2023-03-01T16:03:44.900Z,45.00
2023-03-01T16:06:12.576Z,44.30
2023-03-01T16:08:39.742Z,44.40
2023-03-01T16:11:14.415Z,44.30
2023-03-01T16:13:41.212Z,44.40
2023-03-01T16:16:11.195Z,44.80
2023-03-01T16:18:38.091Z,44.50
2023-03-01T16:21:05.444Z,45.30
2023-03-01T16:23:32.197Z,45.30
2023-03-01T16:26:00.107Z,45.20
2023-03-01T16:28:28.678Z,45.30
2023-03-01T16:30:56.001Z,45.10
2023-03-01T16:33:28.606Z,45.00
2023-03-01T16:35:57.621Z,45.20
2023-03-01T16:38:24.325Z,45.20
2023-03-01T16:40:52.482Z,45.60
2023-03-01T16:43:19.651Z,45.50
2023-03-01T16:45:46.522Z,45.40
2023-03-01T16:48:13.710Z,45.30
2023-03-01T16:50:42.028Z,45.70
2023-03-01T16:53:08.904Z,45.60
2023-03-01T16:55:35.867Z,46.10
2023-03-01T16:58:02.886Z,46.00
2023-03-01T17:00:29.741Z,45.70
2023-03-01T17:02:56.494Z,46.10
2023-03-01T17:05:23.487Z,46.10
2023-03-01T17:07:51.703Z,45.80
2023-03-01T17:10:18.577Z,45.80
2023-03-01T17:12:45.288Z,45.90
2023-03-01T17:15:12.197Z,45.90
2023-03-01T17:17:39.096Z,45.80
2023-03-01T17:20:06.700Z,45.70
2023-03-01T17:22:33.347Z,45.60
2023-03-01T17:25:01.468Z,45.70
2023-03-01T17:27:28.142Z,45.60
2023-03-01T17:29:54.827Z,45.70
2023-03-01T17:32:21.698Z,45.70
2023-03-01T17:34:48.500Z,45.60
2023-03-01T17:37:15.184Z,45.70
2023-03-01T17:39:41.844Z,45.70
2023-03-01T17:42:10.021Z,45.70
2023-03-01T17:44:36.772Z,45.80
2023-03-01T17:47:04.934Z,45.90
2023-03-01T17:49:32.075Z,46.00
2023-03-01T17:51:58.925Z,45.90
2023-03-01T17:54:26.128Z,46.20
2023-03-01T17:56:53.133Z,46.10
2023-03-01T17:59:21.200Z,46.20
2023-03-01T18:01:48.013Z,46.20
2023-03-01T18:04:14.826Z,46.40
2023-03-01T18:06:41.744Z,46.40
2023-03-01T18:09:08.874Z,47.40
2023-03-01T18:11:36.541Z,47.40
2023-03-01T18:14:03.801Z,47.50
2023-03-01T18:16:32.607Z,47.60
2023-03-01T18:19:00.522Z,47.60
2023-03-01T18:21:27.612Z,47.80
2023-03-01T18:23:54.643Z,47.80
2023-03-01T18:26:22.774Z,47.80
2023-03-01T18:28:50.492Z,47.80
2023-03-01T18:31:18.889Z,47.90
2023-03-01T18:33:47.333Z,47.90
2023-03-01T18:36:18.647Z,48.00
2023-03-01T18:38:45.519Z,48.10
2023-03-01T18:41:12.228Z,48.20
2023-03-01T18:43:38.887Z,48.20
2023-03-01T18:46:05.674Z,48.20
2023-03-01T18:48:32.926Z,48.30
2023-03-01T18:51:09.559Z,48.20
2023-03-01T18:53:36.258Z,48.10
2023-03-01T18:56:03.020Z,48.40
2023-03-01T18:58:29.694Z,48.40
2023-03-01T19:00:56.350Z,48.30
2023-03-01T19:03:22.990Z,49.10
2023-03-01T19:05:50.139Z,48.40
2023-03-01T19:08:18.155Z,48.40
2023-03-01T19:10:44.813Z,48.40
2023-03-01T19:13:11.481Z,48.50
2023-03-01T19:15:38.184Z,48.50
2023-03-01T19:18:04.863Z,48.40
2023-03-01T19:20:31.514Z,48.60
2023-03-01T19:22:58.163Z,48.50
2023-03-01T19:25:26.187Z,48.60
2023-03-01T19:27:52.867Z,48.80
2023-03-01T19:30:19.683Z,48.80
2023-03-01T19:32:46.393Z,48.90
2023-03-01T19:35:13.095Z,49.00
2023-03-01T19:37:39.724Z,49.10
2023-03-01T19:40:08.158Z,49.10
2023-03-01T19:42:36.170Z,49.20
2023-03-01T19:45:03.029Z,49.30
2023-03-01T19:47:29.747Z,49.50
2023-03-01T19:49:56.396Z,49.50
2023-03-01T19:52:23.060Z,49.70
2023-03-01T19:54:51.960Z,49.80
2023-03-01T19:57:20.482Z,50.00
2023-03-01T19:59:48.530Z,50.00
2023-03-01T20:02:15.216Z,49.90
2023-03-01T20:04:41.885Z,50.10
2023-03-01T20:07:08.934Z,50.20
2023-03-01T20:09:35.631Z,50.90
2023-03-01T20:12:02.386Z,50.30
2023-03-01T20:14:29.158Z,50.40
2023-03-01T20:16:57.240Z,50.50
2023-03-01T20:19:24.041Z,50.40
2023-03-01T20:21:50.856Z,50.50
2023-03-01T20:24:17.624Z,50.50
2023-03-01T20:26:44.413Z,50.70
2023-03-01T20:29:11.224Z,50.80
2023-03-01T20:31:38.070Z,50.70
2023-03-01T20:34:06.163Z,50.70
2023-03-01T20:36:33.372Z,50.80
2023-03-01T20:39:00.614Z,50.60
2023-03-01T20:41:27.448Z,50.70
2023-03-01T20:43:54.841Z,50.60
2023-03-01T20:46:22.452Z,50.80
2023-03-01T20:48:49.214Z,50.60
2023-03-01T20:51:17.704Z,50.70
2023-03-01T20:53:44.696Z,50.80
2023-03-01T20:56:13.488Z,50.80
2023-03-01T20:58:41.042Z,51.40
2023-03-01T21:01:15.109Z,50.80
2023-03-01T21:03:41.958Z,50.80
2023-03-01T21:06:08.938Z,50.80
2023-03-01T21:08:37.797Z,50.90
2023-03-01T21:11:06.459Z,50.90
2023-03-01T21:13:35.300Z,51.50
2023-03-01T21:16:04.020Z,50.90
2023-03-01T21:18:31.892Z,50.90
2023-03-01T21:20:59.247Z,50.80
2023-03-01T21:23:26.024Z,51.20
2023-03-01T21:26:01.994Z,50.90
2023-03-01T21:28:28.687Z,50.80
2023-03-01T21:30:55.341Z,50.90
2023-03-01T21:33:22.012Z,50.90
2023-03-01T21:35:48.751Z,50.90
2023-03-01T21:38:15.450Z,51.00
2023-03-01T21:40:42.088Z,51.00
2023-03-01T21:43:10.215Z,50.90
2023-03-01T21:45:36.939Z,50.90
2023-03-01T21:48:05.524Z,51.00
2023-03-01T21:50:32.267Z,50.90
2023-03-01T21:52:59.049Z,50.90
2023-03-01T21:55:25.815Z,51.00
2023-03-01T21:57:52.586Z,50.90
2023-03-01T22:00:21.543Z,50.90
2023-03-01T22:02:48.667Z,50.90
2023-03-01T22:05:15.509Z,50.90
2023-03-01T22:07:42.167Z,50.90
2023-03-01T22:10:09.762Z,50.90
2023-03-01T22:12:36.426Z,50.90
2023-03-01T22:15:03.358Z,50.90
2023-03-01T22:17:31.330Z,50.90
2023-03-01T22:19:58.087Z,50.80
2023-03-01T22:22:24.746Z,50.80
2023-03-01T22:24:51.376Z,50.80
2023-03-01T22:27:18.144Z,50.80
2023-03-01T22:29:44.831Z,50.90
2023-03-01T22:32:11.675Z,50.90
2023-03-01T22:34:39.747Z,50.90
2023-03-01T22:37:06.499Z,50.80
2023-03-01T22:39:33.179Z,51.00
2023-03-01T22:41:59.865Z,50.90
2023-03-01T22:44:26.557Z,50.90
2023-03-01T22:46:53.365Z,50.90
2023-03-01T22:49:20.853Z,50.90
2023-03-01T22:51:49.904Z,50.80
2023-03-01T22:54:18.476Z,50.80
2023-03-01T22:56:45.416Z,50.80
2023-03-01T22:59:14.356Z,50.80
2023-03-01T23:01:42.449Z,50.80
2023-03-01T23:04:09.104Z,50.80
2023-03-01T23:06:36.085Z,50.80
2023-03-01T23:09:04.136Z,50.80
2023-03-01T23:11:30.881Z,50.80
2023-03-01T23:13:58.697Z,50.80
2023-03-01T23:16:25.443Z,50.80
2023-03-01T23:18:54.218Z,50.80
2023-03-01T23:21:21.227Z,50.80
2023-03-01T23:23:48.454Z,50.80
2023-03-01T23:26:17.363Z,50.70
2023-03-01T23:28:44.425Z,50.80
2023-03-01T23:31:13.402Z,50.80
2023-03-01T23:33:41.095Z,51.00
2023-03-01T23:36:14.899Z,50.80
2023-03-01T23:38:41.866Z,50.80
2023-03-01T23:41:09.227Z,50.90
2023-03-01T23:43:37.308Z,50.70
2023-03-01T23:46:04.457Z,50.60
2023-03-01T23:48:31.145Z,50.70
2023-03-01T23:51:03.608Z,50.70
2023-03-01T23:53:30.256Z,50.70
2023-03-01T23:55:56.922Z,51.50
2023-03-01T23:58:23.622Z,50.60
